createdAt,value
2022-12-27T00:02:19.149Z,1.23
2022-12-27T00:04:46.422Z,1.50
2022-12-27T00:07:13.267Z,1.40
2022-12-27T00:09:40.079Z,1.20
2022-12-27T00:12:07.333Z,1.17
2022-12-27T00:14:34.092Z,1.20
2022-12-27T00:17:00.823Z,1.30
2022-12-27T00:19:27.552Z,1.27
2022-12-27T00:21:54.803Z,1.30
2022-12-27T00:24:21.572Z,1.20
2022-12-27T00:26:49.647Z,1.33
2022-12-27T00:29:16.493Z,1.10
2022-12-27T00:31:43.408Z,1.07
2022-12-27T00:34:10.729Z,1.20
2022-12-27T00:36:37.692Z,1.30
2022-12-27T00:39:04.562Z,1.30
2022-12-27T00:41:31.823Z,1.40
2022-12-27T00:43:58.697Z,1.80
2022-12-27T00:46:25.415Z,1.60
2022-12-27T00:48:52.320Z,1.40
2022-12-27T00:51:24.590Z,1.50
2022-12-27T00:53:53.374Z,1.30
2022-12-27T00:56:26.944Z,1.03
2022-12-27T00:58:55.319Z,1.10
2022-12-27T01:01:24.509Z,1.33
2022-12-27T01:03:51.572Z,1.10
2022-12-27T01:06:21.617Z,1.40
2022-12-27T01:08:48.944Z,0.90
2022-12-27T01:11:17.966Z,1.10
2022-12-27T01:13:45.012Z,1.10
2022-12-27T01:16:20.652Z,1.40
2022-12-27T01:18:48.819Z,1.20
2022-12-27T01:21:18.272Z,1.30
2022-12-27T01:23:45.479Z,1.40
2022-12-27T01:26:18.139Z,1.20
2022-12-27T01:28:45.829Z,1.30
2022-12-27T01:31:18.172Z,1.50
2022-12-27T01:33:45.380Z,1.10
2022-12-27T01:36:14.041Z,1.40
2022-12-27T01:38:44.318Z,1.20
2022-12-27T01:41:43.315Z,1.20
2022-12-27T01:44:49.574Z,1.47
2022-12-27T01:47:38.473Z,1.40
2022-12-27T01:50:08.338Z,1.30
2022-12-27T01:52:40.202Z,1.10
2022-12-27T01:55:14.095Z,1.10
2022-12-27T01:57:41.627Z,1.20
2022-12-27T02:00:09.196Z,1.00
2022-12-27T02:02:36.606Z,1.40
2022-12-27T02:05:03.725Z,1.00
2022-12-27T02:07:59.137Z,1.10
2022-12-27T02:10:27.783Z,1.20
2022-12-27T02:12:54.875Z,1.00
2022-12-27T02:15:21.653Z,1.20
2022-12-27T02:17:48.459Z,1.00
2022-12-27T02:20:22.635Z,0.90
2022-12-27T02:23:20.127Z,1.10
2022-12-27T02:26:11.452Z,1.00
2022-12-27T02:28:59.812Z,1.10
2022-12-27T02:31:41.207Z,1.00
2022-12-27T02:34:28.810Z,1.00
2022-12-27T02:37:04.745Z,1.10
2022-12-27T02:39:36.359Z,1.13
2022-12-27T02:42:22.746Z,1.10
2022-12-27T02:45:08.189Z,1.00
2022-12-27T02:47:53.995Z,1.00
2022-12-27T02:50:39.662Z,1.10
2022-12-27T02:53:23.994Z,1.20
2022-12-27T02:56:46.277Z,0.97
2022-12-27T02:59:21.677Z,1.20
2022-12-27T03:02:22.377Z,1.00
2022-12-27T03:05:10.499Z,1.10
2022-12-27T03:08:01.271Z,0.90
2022-12-27T03:11:02.709Z,1.73
2022-12-27T03:14:12.507Z,0.93
2022-12-27T03:16:58.249Z,0.90
2022-12-27T03:19:48.714Z,0.80
2022-12-27T03:22:35.433Z,1.73
2022-12-27T03:25:23.185Z,0.90
2022-12-27T03:28:12.306Z,0.90
2022-12-27T03:30:58.876Z,1.10
2022-12-27T03:33:27.945Z,0.80
2022-12-27T03:36:28.881Z,1.30
2022-12-27T03:39:09.161Z,1.00
2022-12-27T03:42:01.255Z,0.97
2022-12-27T03:44:28.292Z,1.10
2022-12-27T03:47:00.935Z,1.00
2022-12-27T03:49:40.289Z,1.10
2022-12-27T03:52:09.404Z,0.97
2022-12-27T03:54:45.414Z,1.30
2022-12-27T03:57:15.528Z,1.20
2022-12-27T03:59:42.344Z,1.30
2022-12-27T04:02:09.587Z,1.10
2022-12-27T04:04:36.657Z,1.20
2022-12-27T04:07:04.383Z,1.20
2022-12-27T04:09:50.332Z,1.00
2022-12-27T04:12:35.636Z,0.83
2022-12-27T04:15:21.494Z,1.10
2022-12-27T04:18:06.987Z,0.93
2022-12-27T04:20:52.640Z,1.20
2022-12-27T04:23:38.162Z,1.23
2022-12-27T04:26:23.305Z,1.20
2022-12-27T04:29:08.784Z,1.10
2022-12-27T04:31:54.384Z,1.10
2022-12-27T04:34:39.642Z,1.33
2022-12-27T04:37:06.810Z,1.13
2022-12-27T04:39:33.599Z,1.23
2022-12-27T04:42:19.130Z,1.53
2022-12-27T04:45:11.660Z,1.13
2022-12-27T04:48:00.219Z,1.30
2022-12-27T04:50:48.281Z,1.57
2022-12-27T04:53:39.613Z,1.30
2022-12-27T04:56:07.480Z,1.50
2022-12-27T04:58:35.115Z,1.43
2022-12-27T05:01:22.654Z,1.50
2022-12-27T05:03:52.017Z,2.07
2022-12-27T05:06:19.180Z,1.83
2022-12-27T05:09:04.466Z,2.37
2022-12-27T05:11:50.127Z,2.17
2022-12-27T05:14:17.006Z,2.30
2022-12-27T05:16:44.739Z,2.20
2022-12-27T05:19:14.190Z,2.00
2022-12-27T05:22:05.147Z,1.37
2022-12-27T05:24:51.522Z,1.27
2022-12-27T05:27:18.607Z,1.50
2022-12-27T05:29:46.333Z,1.30
2022-12-27T05:32:13.919Z,1.40
2022-12-27T05:34:41.186Z,1.20
2022-12-27T05:37:08.221Z,1.30
2022-12-27T05:39:34.979Z,1.20
2022-12-27T05:42:02.104Z,1.20
2022-12-27T05:44:29.013Z,1.60
2022-12-27T05:46:55.945Z,1.20
2022-12-27T05:49:22.824Z,1.30
2022-12-27T05:51:49.573Z,1.20
2022-12-27T05:54:16.295Z,1.17
2022-12-27T05:56:43.094Z,1.30
2022-12-27T05:59:09.997Z,1.10
2022-12-27T06:01:36.859Z,1.10
2022-12-27T06:04:03.749Z,1.10
2022-12-27T06:06:30.541Z,1.23
2022-12-27T06:08:57.282Z,1.20
2022-12-27T06:11:24.453Z,1.17
2022-12-27T06:13:53.491Z,1.37
2022-12-27T06:16:21.724Z,1.00
2022-12-27T06:18:48.659Z,1.13
2022-12-27T06:21:19.257Z,1.20
2022-12-27T06:23:47.040Z,1.50
2022-12-27T06:26:19.017Z,1.40
2022-12-27T06:28:46.128Z,1.80
2022-12-27T06:31:13.028Z,2.37
2022-12-27T06:33:39.909Z,2.30
2022-12-27T06:36:12.935Z,2.27
2022-12-27T06:38:40.543Z,2.40
2022-12-27T06:41:10.324Z,2.40
2022-12-27T06:43:37.781Z,2.50
2022-12-27T06:46:12.398Z,2.10
2022-12-27T06:48:44.783Z,2.27
2022-12-27T06:51:13.135Z,2.40
2022-12-27T06:53:40.421Z,2.30
2022-12-27T06:56:09.693Z,3.73
2022-12-27T06:58:36.588Z,4.60
2022-12-27T07:01:16.548Z,4.27
2022-12-27T07:03:43.461Z,3.90
2022-12-27T07:06:11.832Z,3.50
2022-12-27T07:08:39.759Z,3.37
2022-12-27T07:11:08.885Z,3.80
2022-12-27T07:13:37.975Z,3.10
2022-12-27T07:16:10.087Z,2.70
2022-12-27T07:18:37.386Z,1.97
2022-12-27T07:21:12.601Z,1.97
2022-12-27T07:23:39.951Z,1.50
2022-12-27T07:26:16.619Z,1.50
2022-12-27T07:28:44.183Z,1.93
2022-12-27T07:31:14.076Z,1.60
2022-12-27T07:33:41.621Z,1.43
2022-12-27T07:36:12.852Z,1.27
2022-12-27T07:38:40.049Z,1.20
2022-12-27T07:41:06.822Z,1.20
2022-12-27T07:43:34.943Z,1.33
2022-12-27T07:46:22.151Z,1.30
2022-12-27T07:48:49.146Z,1.50
2022-12-27T07:51:17.160Z,1.40
2022-12-27T07:53:44.587Z,1.33
2022-12-27T07:56:26.131Z,1.10
2022-12-27T07:58:55.862Z,1.43
2022-12-27T08:01:24.765Z,1.50
2022-12-27T08:03:51.844Z,1.70
2022-12-27T08:06:24.609Z,1.80
2022-12-27T08:08:52.891Z,1.60
2022-12-27T08:11:20.537Z,1.60
2022-12-27T08:13:47.855Z,1.90
2022-12-27T08:16:20.645Z,1.77
2022-12-27T08:18:47.974Z,1.80
2022-12-27T08:21:15.917Z,1.50
2022-12-27T08:23:42.900Z,2.13
2022-12-27T08:26:10.043Z,1.97
2022-12-27T08:28:36.931Z,2.00
2022-12-27T08:31:08.277Z,1.90
2022-12-27T08:33:35.583Z,1.90
2022-12-27T08:36:53.290Z,2.47
2022-12-27T08:38:55.671Z,2.10
2022-12-27T08:41:22.811Z,2.20
2022-12-27T08:43:49.955Z,2.30
2022-12-27T08:46:18.777Z,1.90
2022-12-27T08:48:48.702Z,2.33
2022-12-27T08:51:23.451Z,2.10
2022-12-27T08:53:56.995Z,2.67
2022-12-27T08:56:23.767Z,2.10
2022-12-27T08:58:50.559Z,2.23
2022-12-27T09:01:18.140Z,2.00
2022-12-27T09:03:44.995Z,1.60
2022-12-27T09:06:15.703Z,1.50
2022-12-27T09:08:47.093Z,1.57
2022-12-27T09:11:20.673Z,1.60
2022-12-27T09:13:47.765Z,1.53
2022-12-27T09:16:16.952Z,1.30
2022-12-27T09:18:44.291Z,1.47
2022-12-27T09:21:13.797Z,1.30
2022-12-27T09:23:41.526Z,1.40
2022-12-27T09:26:13.739Z,1.60
2022-12-27T09:28:41.523Z,1.97
2022-12-27T09:31:10.258Z,1.70
2022-12-27T09:33:37.661Z,1.30
2022-12-27T09:36:07.233Z,1.30
2022-12-27T09:38:34.555Z,1.30
2022-12-27T09:41:05.869Z,1.60
2022-12-27T09:43:44.123Z,1.43
2022-12-27T09:46:22.199Z,1.30
2022-12-27T09:48:50.569Z,1.30
2022-12-27T09:51:26.683Z,1.50
2022-12-27T09:54:17.933Z,1.20
2022-12-27T09:57:18.355Z,1.47
2022-12-27T09:59:41.150Z,1.10
2022-12-27T10:02:25.800Z,1.30
2022-12-27T10:05:19.924Z,1.10
2022-12-27T10:08:05.973Z,1.60
2022-12-27T10:10:58.300Z,1.50
2022-12-27T10:13:49.499Z,1.40
2022-12-27T10:16:31.599Z,1.10
2022-12-27T10:19:33.910Z,1.40
2022-12-27T10:22:12.460Z,1.53
2022-12-27T10:24:51.574Z,1.80
2022-12-27T10:27:23.152Z,2.07
2022-12-27T10:29:53.861Z,3.33
2022-12-27T10:32:20.907Z,4.00
2022-12-27T10:34:56.628Z,9.70
2022-12-27T10:37:23.903Z,6.47
2022-12-27T10:39:51.632Z,4.27
2022-12-27T10:42:47.347Z,4.73
2022-12-27T10:45:29.793Z,5.13
2022-12-27T10:48:10.123Z,4.57
2022-12-27T10:50:37.687Z,4.40
2022-12-27T10:53:04.576Z,3.90
2022-12-27T10:55:35.416Z,3.60
2022-12-27T10:58:25.718Z,3.50
2022-12-27T11:00:57.625Z,3.17
2022-12-27T11:03:26.224Z,2.93
2022-12-27T11:06:07.231Z,2.67
2022-12-27T11:08:34.096Z,2.57
2022-12-27T11:11:27.062Z,1.80
2022-12-27T11:14:11.238Z,2.30
2022-12-27T11:16:41.060Z,2.23
2022-12-27T11:19:22.572Z,3.03
2022-12-27T11:21:50.044Z,3.50
2022-12-27T11:24:20.284Z,2.80
2022-12-27T11:26:58.094Z,4.00
2022-12-27T11:29:27.539Z,2.20
2022-12-27T11:31:55.218Z,2.50
2022-12-27T11:34:37.441Z,2.70
2022-12-27T11:37:14.414Z,2.70
2022-12-27T11:39:47.306Z,2.93
2022-12-27T11:42:39.158Z,2.33
2022-12-27T11:45:19.678Z,2.23
2022-12-27T11:48:12.876Z,2.80
2022-12-27T11:51:29.966Z,2.40
2022-12-27T11:54:04.129Z,2.13
2022-12-27T11:56:34.958Z,1.70
2022-12-27T11:59:30.782Z,2.10
2022-12-27T12:02:25.873Z,2.10
2022-12-27T12:04:55.640Z,1.90
2022-12-27T12:07:37.535Z,1.90
2022-12-27T12:10:35.386Z,2.10
2022-12-27T12:13:28.817Z,2.30
2022-12-27T12:16:16.701Z,1.90
2022-12-27T12:19:11.051Z,1.80
2022-12-27T12:22:15.972Z,1.90
2022-12-27T12:25:00.704Z,2.23
2022-12-27T12:27:35.034Z,1.70
2022-12-27T12:30:11.781Z,1.47
2022-12-27T12:32:57.910Z,1.37
2022-12-27T12:35:53.441Z,1.50
2022-12-27T12:38:22.965Z,1.53
2022-12-27T12:41:04.736Z,1.50
2022-12-27T12:43:49.945Z,2.30
2022-12-27T12:46:34.149Z,1.90
2022-12-27T12:49:22.852Z,2.10
2022-12-27T12:52:14.170Z,6.00
2022-12-27T12:54:56.837Z,3.07
2022-12-27T12:57:48.164Z,3.10
2022-12-27T13:00:36.317Z,2.53
2022-12-27T13:03:48.239Z,3.40
2022-12-27T13:06:37.897Z,3.10
2022-12-27T13:09:16.944Z,3.60
2022-12-27T13:12:12.037Z,3.30
2022-12-27T13:14:57.002Z,3.77
2022-12-27T13:17:40.481Z,3.87
2022-12-27T13:20:37.326Z,3.80
2022-12-27T13:23:38.383Z,3.50
2022-12-27T13:26:25.399Z,4.07
2022-12-27T13:29:10.883Z,3.20
2022-12-27T13:32:04.696Z,3.23
2022-12-27T13:34:48.523Z,3.17
2022-12-27T13:37:21.351Z,3.50
2022-12-27T13:39:54.312Z,3.60
2022-12-27T13:42:59.140Z,3.10
2022-12-27T13:45:43.108Z,3.33
2022-12-27T13:48:39.740Z,3.00
2022-12-27T13:51:44.188Z,2.70
2022-12-27T13:54:35.306Z,2.90
2022-12-27T13:57:24.755Z,2.37
2022-12-27T14:00:17.256Z,2.50
2022-12-27T14:02:56.090Z,1.93
2022-12-27T14:05:35.492Z,2.53
2022-12-27T14:08:41.436Z,2.20
2022-12-27T14:11:42.468Z,2.23
2022-12-27T14:14:13.882Z,2.40
2022-12-27T14:16:59.699Z,2.07
2022-12-27T14:19:51.185Z,2.47
2022-12-27T14:22:34.097Z,2.20
2022-12-27T14:25:32.487Z,2.67
2022-12-27T14:28:26.976Z,3.00
2022-12-27T14:30:59.578Z,3.70
2022-12-27T14:33:58.173Z,8.30
2022-12-27T14:36:27.918Z,19.83
2022-12-27T14:39:03.668Z,25.57
2022-12-27T14:42:04.361Z,26.67
2022-12-27T14:44:49.971Z,16.93
2022-12-27T14:47:45.511Z,12.13
2022-12-27T14:50:43.223Z,11.80
2022-12-27T14:53:21.445Z,10.03
2022-12-27T14:55:48.180Z,7.90
2022-12-27T14:58:26.321Z,5.33
2022-12-27T15:00:59.245Z,6.00
2022-12-27T15:03:44.210Z,6.20
2022-12-27T15:06:48.478Z,5.20
2022-12-27T15:09:53.837Z,4.93
2022-12-27T15:12:45.802Z,5.00
2022-12-27T15:15:35.935Z,4.10
2022-12-27T15:18:02.760Z,3.50
2022-12-27T15:20:29.541Z,2.97
2022-12-27T15:23:12.206Z,3.03
2022-12-27T15:26:00.846Z,2.83
2022-12-27T15:28:40.120Z,2.97
2022-12-27T15:31:14.751Z,2.70
2022-12-27T15:33:53.471Z,2.90
2022-12-27T15:36:35.553Z,2.83
2022-12-27T15:39:02.817Z,3.57
2022-12-27T15:41:50.866Z,3.97
2022-12-27T15:44:17.676Z,4.23
2022-12-27T15:47:09.508Z,3.70
2022-12-27T15:49:55.160Z,3.70
2022-12-27T15:52:25.006Z,3.10
2022-12-27T15:55:29.769Z,3.30
2022-12-27T15:58:15.726Z,3.90
2022-12-27T16:00:44.470Z,3.57
2022-12-27T16:03:36.161Z,4.00
2022-12-27T16:06:05.125Z,4.00
2022-12-27T16:08:35.075Z,4.00
2022-12-27T16:11:12.906Z,3.60
2022-12-27T16:13:48.512Z,3.47
2022-12-27T16:16:27.905Z,3.13
2022-12-27T16:19:16.366Z,2.90
2022-12-27T16:21:46.249Z,2.67
2022-12-27T16:24:20.583Z,1.90
2022-12-27T16:26:57.935Z,2.00
2022-12-27T16:29:29.545Z,2.33
2022-12-27T16:32:13.062Z,2.07
2022-12-27T16:34:42.006Z,2.10
2022-12-27T16:37:45.379Z,1.90
2022-12-27T16:40:21.469Z,1.80
2022-12-27T16:42:54.437Z,2.17
2022-12-27T16:45:39.485Z,2.60
2022-12-27T16:48:43.759Z,2.67
2022-12-27T16:51:27.755Z,2.13
2022-12-27T16:54:22.057Z,2.90
2022-12-27T16:56:49.275Z,2.70
2022-12-27T16:59:53.531Z,2.60
2022-12-27T17:02:38.904Z,2.53
2022-12-27T17:05:16.174Z,2.50
2022-12-27T17:07:57.821Z,2.20
2022-12-27T17:10:27.769Z,2.30
2022-12-27T17:13:01.084Z,2.57
2022-12-27T17:15:28.735Z,2.30
2022-12-27T17:17:59.558Z,2.57
2022-12-27T17:20:26.548Z,2.70
2022-12-27T17:22:57.142Z,2.70
2022-12-27T17:25:37.028Z,2.57
2022-12-27T17:28:06.835Z,2.40
2022-12-27T17:30:48.985Z,3.00
2022-12-27T17:34:00.456Z,3.43
2022-12-27T17:36:53.610Z,3.00
2022-12-27T17:39:50.424Z,3.03
2022-12-27T17:42:46.485Z,2.90
2022-12-27T17:45:31.331Z,2.90
2022-12-27T17:48:14.629Z,2.83
2022-12-27T17:50:44.455Z,2.43
2022-12-27T17:53:37.533Z,2.70
2022-12-27T17:56:41.594Z,2.37
2022-12-27T17:59:13.303Z,2.10
2022-12-27T18:01:49.035Z,2.40
2022-12-27T18:04:24.463Z,1.93
2022-12-27T18:06:56.293Z,2.20
2022-12-27T18:09:43.975Z,1.60
2022-12-27T18:12:34.545Z,1.50
2022-12-27T18:15:09.097Z,1.60
2022-12-27T18:17:42.419Z,1.83
2022-12-27T18:20:28.430Z,2.13
2022-12-27T18:23:01.337Z,2.03
2022-12-27T18:25:33.871Z,2.00
2022-12-27T18:28:02.947Z,2.03
2022-12-27T18:30:36.533Z,1.70
2022-12-27T18:33:04.160Z,1.87
2022-12-27T18:35:31.399Z,1.70
2022-12-27T18:37:58.335Z,1.67
2022-12-27T18:40:26.331Z,1.90
2022-12-27T18:42:53.394Z,1.90
2022-12-27T18:45:26.777Z,2.00
2022-12-27T18:47:56.487Z,1.90
2022-12-27T18:50:27.048Z,1.83
2022-12-27T18:53:01.715Z,1.90
2022-12-27T18:55:29.028Z,2.57
2022-12-27T18:58:05.753Z,2.17
2022-12-27T19:00:32.862Z,1.70
2022-12-27T19:03:15.185Z,2.00
2022-12-27T19:06:01.988Z,1.83
2022-12-27T19:08:51.309Z,2.07
2022-12-27T19:11:24.615Z,1.63
2022-12-27T19:13:54.902Z,1.73
2022-12-27T19:16:26.476Z,1.70
2022-12-27T19:18:56.344Z,1.37
2022-12-27T19:21:36.365Z,1.50
2022-12-27T19:24:39.135Z,1.47
2022-12-27T19:27:23.117Z,1.50
2022-12-27T19:29:51.579Z,1.47
2022-12-27T19:32:47.553Z,1.47
2022-12-27T19:35:14.898Z,1.63
2022-12-27T19:37:41.716Z,1.43
2022-12-27T19:40:14.564Z,1.37
2022-12-27T19:42:41.586Z,1.37
2022-12-27T19:45:15.271Z,1.13
2022-12-27T19:47:42.235Z,1.40
2022-12-27T19:50:11.105Z,1.30
2022-12-27T19:52:39.534Z,1.40
2022-12-27T19:55:09.721Z,1.30
2022-12-27T19:57:36.600Z,1.33
2022-12-27T20:00:12.160Z,1.40
2022-12-27T20:02:39.627Z,1.20
2022-12-27T20:05:07.188Z,1.50
2022-12-27T20:07:34.085Z,1.47
2022-12-27T20:10:00.962Z,1.70
2022-12-27T20:12:27.766Z,2.00
2022-12-27T20:14:54.714Z,2.20
2022-12-27T20:17:21.539Z,2.07
2022-12-27T20:19:48.521Z,2.30
2022-12-27T20:22:15.346Z,2.20
2022-12-27T20:24:42.194Z,2.33
2022-12-27T20:27:09.070Z,2.70
2022-12-27T20:29:35.973Z,3.80
2022-12-27T20:32:03.026Z,4.20
2022-12-27T20:34:30.023Z,3.70
2022-12-27T20:36:58.205Z,3.67
2022-12-27T20:39:25.029Z,3.83
2022-12-27T20:41:51.849Z,3.50
2022-12-27T20:44:19.365Z,3.00
2022-12-27T20:46:47.617Z,2.50
2022-12-27T20:49:14.506Z,2.83
2022-12-27T20:51:41.852Z,3.10
2022-12-27T20:54:13.293Z,3.50
2022-12-27T20:56:40.135Z,5.20
2022-12-27T20:59:07.194Z,7.77
2022-12-27T21:01:34.112Z,23.40
2022-12-27T21:04:01.117Z,22.07
2022-12-27T21:06:29.015Z,27.93
2022-12-27T21:08:58.229Z,24.07
2022-12-27T21:11:32.694Z,18.80
2022-12-27T21:14:04.528Z,13.53
2022-12-27T21:16:33.506Z,12.50
2022-12-27T21:19:04.779Z,11.87
2022-12-27T21:21:35.221Z,12.60
2022-12-27T21:24:03.087Z,13.30
2022-12-27T21:26:32.024Z,12.30
2022-12-27T21:29:00.160Z,13.53
2022-12-27T21:31:27.919Z,26.83
2022-12-27T21:33:55.128Z,36.67
2022-12-27T21:36:24.740Z,35.43
2022-12-27T21:38:53.022Z,28.40
2022-12-27T21:41:25.673Z,19.57
2022-12-27T21:43:53.388Z,16.67
2022-12-27T21:46:23.347Z,10.30
2022-12-27T21:49:04.657Z,8.20
2022-12-27T21:51:32.794Z,6.40
2022-12-27T21:54:00.168Z,4.33
2022-12-27T21:56:27.505Z,4.43
2022-12-27T21:58:57.597Z,7.17
2022-12-27T22:01:27.130Z,7.87
2022-12-27T22:03:56.008Z,6.77
2022-12-27T22:06:26.203Z,12.60
2022-12-27T22:08:56.218Z,9.10
2022-12-27T22:11:24.043Z,17.13
2022-12-27T22:13:51.140Z,12.83
2022-12-27T22:16:20.885Z,11.47
2022-12-27T22:18:48.743Z,9.83
2022-12-27T22:21:18.755Z,8.53
2022-12-27T22:23:48.560Z,7.73
2022-12-27T22:26:18.159Z,6.97
2022-12-27T22:28:45.448Z,4.77
2022-12-27T22:31:15.555Z,4.87
2022-12-27T22:33:42.745Z,5.07
2022-12-27T22:36:13.821Z,5.60
2022-12-27T22:38:40.901Z,5.50
2022-12-27T22:41:11.403Z,4.70
2022-12-27T22:43:38.729Z,3.97
2022-12-27T22:46:08.021Z,3.60
2022-12-27T22:48:35.913Z,3.23
2022-12-27T22:51:11.987Z,3.77
2022-12-27T22:53:39.409Z,4.00
2022-12-27T22:56:22.520Z,3.57
2022-12-27T22:58:49.945Z,3.80
2022-12-27T23:01:29.152Z,3.40
2022-12-27T23:03:57.928Z,3.47
2022-12-27T23:06:26.240Z,3.83
2022-12-27T23:08:53.532Z,4.33
2022-12-27T23:11:27.386Z,4.60
2022-12-27T23:13:59.912Z,5.40
2022-12-27T23:16:27.707Z,6.07
2022-12-27T23:18:54.710Z,6.53
2022-12-27T23:21:23.888Z,8.67
2022-12-27T23:23:52.208Z,8.53
2022-12-27T23:26:21.560Z,8.40
2022-12-27T23:28:49.654Z,10.60
2022-12-27T23:31:18.084Z,6.80
2022-12-27T23:33:45.248Z,7.47
2022-12-27T23:36:13.250Z,6.30
2022-12-27T23:38:41.328Z,5.97
2022-12-27T23:41:10.556Z,5.53
2022-12-27T23:43:55.797Z,5.63
2022-12-27T23:46:33.893Z,4.50
2022-12-27T23:49:03.253Z,5.40
2022-12-27T23:51:31.690Z,4.43
2022-12-27T23:53:59.025Z,4.00
2022-12-27T23:56:28.972Z,3.70
2022-12-27T23:58:58.016Z,3.50
